Time;durP1;ratioP1;P1;durP2;ratioP2;P2;SDS_P1;SDS_P2;PMS_P1;PMS_P2;Temp;Humidity;BMP_temperature;BMP_pressure;BME280_temperature;BME280_humidity;BME280_pressure;Samples;Min_cycle;Max_cycle;Signal;HPM_P1;HPM_P2
2024/01/23 00:00:08;;;;;;;;;;;;;;;18.59;56.14;99648.25;2088349;28;19936;-70
2024/01/23 00:01:09;;;;;;;;;;;;;;;18.59;55.86;99646.38;2088298;28;20043;-70
2024/01/23 00:02:11;;;;;;;;;;;;;;;18.60;56.06;99650.72;2086973;28;19929;-70
2024/01/23 00:03:11;;;;;;;;;;;;;;;18.59;55.94;99649.06;2090773;28;19981;-70
2024/01/23 00:04:13;;;;;;;;;;;;;;;18.54;56.32;99654.97;2089429;28;19932;-70
2024/01/23 00:05:13;;;;;;;;;;;;;;;18.55;56.29;99647.75;2087914;28;20003;-70
2024/01/23 00:06:15;;;;;;;;;;;;;;;18.55;55.99;99653.13;2088086;28;19939;-70
2024/01/23 00:07:16;;;;;;;;;;;;;;;18.54;56.05;99654.97;2088407;28;19928;-70
2024/01/23 00:08:17;;;;;;;;;;;;;;;18.54;56.08;99654.97;2086782;28;20576;-70
2024/01/23 00:09:18;;;;;;;;;;;;;;;18.52;56.06;99656.16;2089495;28;19935;-70
2024/01/23 00:10:22;;;;;;;;;;;;;;;18.50;56.16;99653.66;2086039;28;19932;-70
2024/01/23 00:11:24;;;;;;;;;;;;;;;18.49;56.30;99660.03;2089069;28;19932;-69
2024/01/23 00:12:26;;;;;;;;;;;;;;;18.48;55.98;99669.13;2089177;28;19964;-70
2024/01/23 00:13:26;;;;;;;;;;;;;;;18.47;56.09;99645.97;2086929;28;19955;-70
2024/01/23 00:14:28;;;;;;;;;;;;;;;18.47;56.14;99667.47;2091234;28;19975;-70
2024/01/23 00:15:29;;;;;;;;;;;;;;;18.45;56.38;99669.47;2087013;28;20594;-69
2024/01/23 00:16:30;;;;;;;;;;;;;;;18.44;56.33;99667.81;2087613;28;19964;-70
2024/01/23 00:17:31;;;;;;;;;;;;;;;18.43;56.51;99671.50;2091214;28;19935;-70
2024/01/23 00:18:33;;;;;;;;;;;;;;;18.42;56.49;99669.84;2087732;28;20028;-70
2024/01/23 00:19:33;;;;;;;;;;;;;;;18.41;56.20;99670.84;2087933;28;19924;-70
2024/01/23 00:20:34;;;;;;;;;;;;;;;18.39;56.41;99680.94;2086351;28;20292;-70
2024/01/23 00:21:35;;;;;;;;;;;;;;;18.38;56.28;99678.41;2089850;28;19943;-70
2024/01/23 00:22:36;;;;;;;;;;;;;;;18.38;56.41;99676.56;2087440;28;19929;-69
2024/01/23 00:23:38;;;;;;;;;;;;;;;18.39;56.56;99677.41;2090315;28;20691;-70
2024/01/23 00:24:38;;;;;;;;;;;;;;;18.39;56.28;99674.75;2088370;28;19924;-70
2024/01/23 00:25:39;;;;;;;;;;;;;;;18.39;56.06;99672.88;2089785;28;19984;-70
2024/01/23 00:26:42;;;;;;;;;;;;;;;18.37;56.43;99674.91;2087752;28;20287;-70
2024/01/23 00:27:42;;;;;;;;;;;;;;;18.37;56.29;99674.06;2086178;28;19959;-70
2024/01/23 00:28:44;;;;;;;;;;;;;;;18.36;56.25;99675.94;2089910;28;20419;-70
2024/01/23 00:29:45;;;;;;;;;;;;;;;18.36;56.46;99670.56;2088722;28;19971;-70
2024/01/23 00:30:46;;;;;;;;;;;;;;;18.36;56.21;99669.69;2087007;28;19935;-70
2024/01/23 00:31:47;;;;;;;;;;;;;;;18.36;56.47;99672.38;2093019;28;19928;-70
2024/01/23 00:32:49;;;;;;;;;;;;;;;18.35;56.15;99671.53;2086942;28;20022;-70
2024/01/23 00:33:49;;;;;;;;;;;;;;;18.34;56.24;99664.50;2086586;28;20714;-70
2024/01/23 00:34:51;;;;;;;;;;;;;;;18.33;56.32;99668.22;2089089;28;20011;-70
2024/01/23 00:35:52;;;;;;;;;;;;;;;18.33;56.51;99670.91;2085762;28;19967;-70
2024/01/23 00:36:53;;;;;;;;;;;;;;;18.31;56.62;99670.25;2086486;28;20861;-70
2024/01/23 00:37:54;;;;;;;;;;;;;;;18.31;56.30;99672.94;2087528;28;20387;-70
2024/01/23 00:38:54;;;;;;;;;;;;;;;18.30;56.29;99671.22;2089698;28;19932;-70
2024/01/23 00:39:56;;;;;;;;;;;;;;;18.28;56.49;99670.59;2087947;28;19981;-70
2024/01/23 00:40:57;;;;;;;;;;;;;;;18.26;56.27;99664.56;2089424;28;20028;-70
2024/01/23 00:42:00;;;;;;;;;;;;;;;18.28;56.22;99665.22;2089122;28;20395;-70
2024/01/23 00:43:00;;;;;;;;;;;;;;;18.24;56.58;99667.41;2090375;28;19928;-70
2024/01/23 00:44:02;;;;;;;;;;;;;;;18.25;56.48;99665.59;2089345;28;19975;-70
2024/01/23 00:45:03;;;;;;;;;;;;;;;18.22;56.50;99664.09;2086830;28;19929;-70
2024/01/23 00:46:05;;;;;;;;;;;;;;;18.24;56.47;99671.94;2087347;28;19971;-70
2024/01/23 00:47:05;;;;;;;;;;;;;;;18.21;56.48;99665.06;2089368;28;19932;-70
2024/01/23 00:48:08;;;;;;;;;;;;;;;18.19;56.40;99664.44;2087570;28;19962;-70
2024/01/23 00:49:08;;;;;;;;;;;;;;;18.19;56.41;99668.94;2090864;28;19931;-70
2024/01/23 00:50:10;;;;;;;;;;;;;;;18.16;56.59;99662.06;2088139;28;19967;-70
2024/01/23 00:51:11;;;;;;;;;;;;;;;18.18;56.42;99667.28;2087523;28;19925;-70
2024/01/23 00:52:12;;;;;;;;;;;;;;;18.16;56.51;99669.31;2088452;28;19972;-70
2024/01/23 00:53:13;;;;;;;;;;;;;;;18.19;56.30;99672.50;2087091;28;19936;-70
2024/01/23 00:54:14;;;;;;;;;;;;;;;18.14;56.68;99671.34;2090643;28;19929;-70
2024/01/23 00:55:15;;;;;;;;;;;;;;;18.17;56.66;99679.88;2087472;28;20015;-70
2024/01/23 00:56:16;;;;;;;;;;;;;;;18.15;56.48;99678.38;2085355;28;20591;-70
2024/01/23 00:57:19;;;;;;;;;;;;;;;18.14;56.26;99671.34;2086592;28;20051;-70
2024/01/23 00:58:20;;;;;;;;;;;;;;;18.13;56.69;99677.72;2087074;28;19928;-70
2024/01/23 00:59:21;;;;;;;;;;;;;;;18.12;56.42;99673.38;2090144;28;19963;-70
2024/01/23 01:00:22;;;;;;;;;;;;;;;18.14;56.44;99679.41;2088100;28;19939;-70
2024/01/23 01:01:24;;;;;;;;;;;;;;;18.12;56.44;99681.41;2087938;28;20465;-69
2024/01/23 01:02:24;;;;;;;;;;;;;;;18.08;56.60;99673.72;2086899;28;19987;-69
2024/01/23 01:03:26;;;;;;;;;;;;;;;18.08;56.30;99668.34;2087731;28;19939;-70
2024/01/23 01:04:27;;;;;;;;;;;;;;;18.07;56.47;99663.97;2089903;28;19932;-70
2024/01/23 01:05:29;;;;;;;;;;;;;;;18.07;56.48;99666.66;2089390;28;20310;-70
2024/01/23 01:06:29;;;;;;;;;;;;;;;18.06;56.58;99675.72;2083965;28;19959;-70
2024/01/23 01:07:30;;;;;;;;;;;;;;;18.07;56.37;99681.94;2086163;28;20414;-70
2024/01/23 01:08:32;;;;;;;;;;;;;;;18.06;56.32;99678.41;2088914;28;19943;-70
2024/01/23 01:09:32;;;;;;;;;;;;;;;18.07;56.25;99680.06;2087281;28;19936;-70
2024/01/23 01:10:34;;;;;;;;;;;;;;;18.04;56.57;99666.19;2088698;28;19950;-70
2024/01/23 01:11:35;;;;;;;;;;;;;;;18.05;56.53;99668.69;2088753;28;19954;-70
2024/01/23 01:12:38;;;;;;;;;;;;;;;18.02;56.53;99673.56;2087578;28;19978;-70
2024/01/23 01:13:38;;;;;;;;;;;;;;;17.98;56.67;99667.72;2086108;28;19929;-70
2024/01/23 01:14:40;;;;;;;;;;;;;;;17.99;56.53;99664.00;2089679;28;19932;-70
2024/01/23 01:15:41;;;;;;;;;;;;;;;17.96;56.62;99675.09;2088080;28;19928;-69
2024/01/23 01:16:42;;;;;;;;;;;;;;;17.96;56.50;99669.72;2088011;28;20019;-70
2024/01/23 01:17:43;;;;;;;;;;;;;;;17.96;56.76;99668.88;2086830;28;19940;-70
2024/01/23 01:18:45;;;;;;;;;;;;;;;17.94;56.47;99670.91;2088172;28;20051;-70
2024/01/23 01:19:45;;;;;;;;;;;;;;;17.94;56.62;99668.22;2086695;28;19932;-70
2024/01/23 01:20:48;;;;;;;;;;;;;;;17.95;56.46;99670.75;2087593;28;20434;-70
2024/01/23 01:21:49;;;;;;;;;;;;;;;17.94;56.54;99678.97;2087700;28;19929;-70
2024/01/23 01:22:50;;;;;;;;;;;;;;;17.92;56.73;99671.09;2086908;28;19928;-70
2024/01/23 01:23:51;;;;;;;;;;;;;;;17.92;56.43;99676.47;2089926;28;19924;-70
2024/01/23 01:24:53;;;;;;;;;;;;;;;17.94;56.62;99679.81;2087940;28;19924;-70
2024/01/23 01:25:53;;;;;;;;;;;;;;;17.92;56.48;99681.00;2084524;28;19939;-70
2024/01/23 01:26:55;;;;;;;;;;;;;;;17.92;56.52;99684.50;2088468;28;20849;-70
2024/01/23 01:27:59;;;;;;;;;;;;;;;17.92;56.67;99681.84;2086345;28;19932;-70
2024/01/23 01:29:01;;;;;;;;;;;;;;;17.89;56.45;99690.22;2089154;28;20315;-70
2024/01/23 01:30:02;;;;;;;;;;;;;;;17.87;56.61;99686.88;2086676;28;19929;-70
2024/01/23 01:31:04;;;;;;;;;;;;;;;17.89;56.44;99674.13;2088933;28;19932;-70
2024/01/23 01:32:05;;;;;;;;;;;;;;;17.89;56.76;99674.13;2088477;28;19929;-70
2024/01/23 01:33:06;;;;;;;;;;;;;;;17.85;56.81;99676.31;2088987;28;20498;-70
2024/01/23 01:34:07;;;;;;;;;;;;;;;17.86;56.64;99685.22;2087151;28;20391;-70
2024/01/23 01:35:09;;;;;;;;;;;;;;;17.88;56.53;99683.16;2091173;28;19955;-70
2024/01/23 01:36:09;;;;;;;;;;;;;;;17.83;56.64;99681.03;2085779;28;19995;-70
2024/01/23 01:37:11;;;;;;;;;;;;;;;17.81;56.66;99682.22;2086940;28;19928;-70
2024/01/23 01:38:11;;;;;;;;;;;;;;;17.79;56.52;99668.13;2087701;28;20506;-70
2024/01/23 01:39:14;;;;;;;;;;;;;;;17.78;57.08;99666.44;2086164;28;19928;-70
2024/01/23 01:40:15;;;;;;;;;;;;;;;17.78;56.69;99669.09;2088761;28;19982;-70
2024/01/23 01:41:16;;;;;;;;;;;;;;;17.78;56.58;99675.34;2088959;28;19932;-70
2024/01/23 01:42:17;;;;;;;;;;;;;;;17.80;56.52;99675.16;2087339;28;19928;-70
2024/01/23 01:43:27;;;;;;;;;;;;;;;17.77;56.87;99670.09;2087270;28;19975;-70
2024/01/23 01:44:29;;;;;;;;;;;;;;;17.74;56.59;99668.59;2084662;28;19929;-70
2024/01/23 01:45:29;;;;;;;;;;;;;;;17.73;56.73;99663.41;2088859;28;19924;-70
2024/01/23 01:46:31;;;;;;;;;;;;;;;17.72;56.98;99667.09;2088298;28;19936;-70
2024/01/23 01:47:32;;;;;;;;;;;;;;;17.72;56.75;99673.31;2087669;28;19925;-70
2024/01/23 01:48:33;;;;;;;;;;;;;;;17.70;56.74;99671.81;2086356;28;20769;-70
2024/01/23 01:49:34;;;;;;;;;;;;;;;17.71;56.92;99662.75;2085533;28;20429;-70
2024/01/23 01:50:35;;;;;;;;;;;;;;;17.71;56.62;99668.94;2087311;28;20391;-70
2024/01/23 01:51:36;;;;;;;;;;;;;;;17.71;56.66;99670.78;2086337;28;20034;-70
2024/01/23 01:52:38;;;;;;;;;;;;;;;17.71;56.93;99670.78;2087264;28;19958;-70
2024/01/23 01:53:39;;;;;;;;;;;;;;;17.70;56.87;99677.19;2087906;28;19967;-70
2024/01/23 01:54:43;;;;;;;;;;;;;;;17.68;56.95;99671.97;2086620;28;20024;-70
2024/01/23 01:55:44;;;;;;;;;;;;;;;17.66;56.89;99671.31;2087698;28;20578;-70
2024/01/23 01:56:46;;;;;;;;;;;;;;;17.64;56.84;99674.16;2086952;28;20017;-70
2024/01/23 01:57:46;;;;;;;;;;;;;;;17.63;56.79;99664.47;2088196;28;19928;-70
2024/01/23 01:58:48;;;;;;;;;;;;;;;17.65;56.92;99677.69;2091001;28;19972;-70
2024/01/23 01:59:51;;;;;;;;;;;;;;;17.64;56.94;99667.97;2090238;28;19932;-70
2024/01/23 02:00:53;;;;;;;;;;;;;;;17.65;56.83;99664.28;2088190;28;20016;-69
2024/01/23 02:01:53;;;;;;;;;;;;;;;17.63;56.99;99661.78;2087745;28;19939;-70
2024/01/23 02:02:55;;;;;;;;;;;;;;;17.63;56.87;99658.22;2085589;28;20832;-70
2024/01/23 02:03:56;;;;;;;;;;;;;;;17.63;56.76;99659.09;2088999;28;20620;-70
2024/01/23 02:04:58;;;;;;;;;;;;;;;17.61;56.61;99660.28;2083813;28;19982;-70
2024/01/23 02:05:59;;;;;;;;;;;;;;;17.58;56.97;99660.63;2088245;28;19932;-70
2024/01/23 02:07:01;;;;;;;;;;;;;;;17.57;56.82;99651.72;2086674;28;19940;-70
2024/01/23 02:08:02;;;;;;;;;;;;;;;17.58;56.83;99648.03;2086748;28;19959;-70
2024/01/23 02:09:04;;;;;;;;;;;;;;;17.59;56.82;99652.38;2086509;28;19932;-70
2024/01/23 02:10:05;;;;;;;;;;;;;;;17.61;56.86;99652.22;2085213;28;19929;-70
2024/01/23 02:11:06;;;;;;;;;;;;;;;17.55;56.71;99645.72;2087145;28;20015;-70
2024/01/23 02:12:08;;;;;;;;;;;;;;;17.54;56.89;99644.00;2087752;28;19967;-70
2024/01/23 02:13:09;;;;;;;;;;;;;;;17.51;56.98;99647.03;2087515;28;19939;-70
2024/01/23 02:14:12;;;;;;;;;;;;;;;17.46;57.14;99644.03;2075802;28;19929;-70
2024/01/23 02:15:12;;;;;;;;;;;;;;;17.46;57.12;99646.72;2080583;28;19933;-70
2024/01/23 02:16:14;;;;;;;;;;;;;;;17.45;57.32;99638.84;2084760;28;20221;-70
2024/01/23 02:17:14;;;;;;;;;;;;;;;17.46;57.03;99638.66;2088004;28;19932;-70
2024/01/23 02:18:16;;;;;;;;;;;;;;;17.45;56.96;99642.38;2083663;28;20012;-70
2024/01/23 02:19:17;;;;;;;;;;;;;;;17.46;56.95;99635.16;2088407;28;19928;-70
2024/01/23 02:20:18;;;;;;;;;;;;;;;17.46;57.08;99640.50;2086794;28;21098;-70
2024/01/23 02:21:19;;;;;;;;;;;;;;;17.45;57.08;99639.69;2084606;28;19929;-70
2024/01/23 02:22:20;;;;;;;;;;;;;;;17.46;57.02;99632.47;2087237;28;19967;-70
2024/01/23 02:23:26;;;;;;;;;;;;;;;17.44;56.96;99632.66;2088793;28;19933;-70
2024/01/23 02:24:27;;;;;;;;;;;;;;;17.43;57.24;99631.81;2085618;28;19932;-70
2024/01/23 02:25:29;;;;;;;;;;;;;;;17.43;56.90;99625.59;2087391;28;19947;-70
2024/01/23 02:26:29;;;;;;;;;;;;;;;17.42;56.92;99626.63;2085646;28;19925;-70
2024/01/23 02:27:31;;;;;;;;;;;;;;;17.42;57.16;99626.63;2088095;28;20024;-70
2024/01/23 02:28:32;;;;;;;;;;;;;;;17.45;57.04;99628.13;2084793;28;19931;-70
2024/01/23 02:29:36;;;;;;;;;;;;;;;17.44;57.02;99627.28;2084935;28;19933;-70
2024/01/23 02:30:37;;;;;;;;;;;;;;;17.39;57.03;99627.81;2085380;28;20330;-70
2024/01/23 02:31:39;;;;;;;;;;;;;;;17.38;57.22;99627.97;2087730;28;19928;-70
2024/01/23 02:32:42;;;;;;;;;;;;;;;17.40;56.89;99620.59;2087356;28;19978;-70
2024/01/23 02:33:44;;;;;;;;;;;;;;;17.41;56.99;99622.25;2087366;28;19932;-70
2024/01/23 02:34:44;;;;;;;;;;;;;;;17.39;57.08;99618.94;2088887;28;19943;-70
2024/01/23 02:35:45;;;;;;;;;;;;;;;17.36;57.20;99613.91;2087390;28;20396;-70
2024/01/23 02:36:47;;;;;;;;;;;;;;;17.37;57.18;99615.56;2086939;28;19924;-70
2024/01/23 02:37:47;;;;;;;;;;;;;;;17.40;57.16;99615.22;2086707;28;20036;-70
2024/01/23 02:38:50;;;;;;;;;;;;;;;17.37;57.17;99618.25;2084162;28;19990;-70
2024/01/23 02:39:51;;;;;;;;;;;;;;;17.33;57.07;99614.25;2085455;28;20679;-70
2024/01/23 02:40:53;;;;;;;;;;;;;;;17.36;57.27;99617.41;2086890;28;20016;-70
2024/01/23 02:41:53;;;;;;;;;;;;;;;17.36;56.90;99621.94;2084903;28;19940;-70
2024/01/23 02:42:55;;;;;;;;;;;;;;;17.33;56.89;99623.13;2086309;28;20008;-70
2024/01/23 02:43:55;;;;;;;;;;;;;;;17.33;57.07;99627.66;2087536;28;19932;-70
2024/01/23 02:44:57;;;;;;;;;;;;;;;17.30;57.12;99619.94;2085076;28;20264;-69
2024/01/23 02:45:57;;;;;;;;;;;;;;;17.30;57.23;99619.94;2086806;28;20548;-70
2024/01/23 02:46:59;;;;;;;;;;;;;;;17.30;57.10;99623.47;2085656;28;20043;-70
2024/01/23 02:47:59;;;;;;;;;;;;;;;17.28;57.30;99627.34;2087503;28;19935;-70
2024/01/23 02:49:01;;;;;;;;;;;;;;;17.30;57.08;99620.78;2088081;28;19956;-70
2024/01/23 02:50:02;;;;;;;;;;;;;;;17.31;56.91;99616.25;2087037;28;20603;-70
2024/01/23 02:51:04;;;;;;;;;;;;;;;17.33;56.96;99630.34;2086915;28;20521;-70
2024/01/23 02:52:04;;;;;;;;;;;;;;;17.33;56.97;99631.19;2083052;28;19935;-70
2024/01/23 02:53:06;;;;;;;;;;;;;;;17.30;57.22;99630.66;2087504;28;20027;-70
2024/01/23 02:54:08;;;;;;;;;;;;;;;17.26;57.06;99621.28;2086766;28;19932;-70
2024/01/23 02:55:08;;;;;;;;;;;;;;;17.27;57.14;99620.28;2089816;28;20022;-70
2024/01/23 02:56:10;;;;;;;;;;;;;;;17.27;57.02;99617.59;2084942;28;19933;-70
2024/01/23 02:57:12;;;;;;;;;;;;;;;17.23;57.17;99619.78;2086742;28;19931;-70
2024/01/23 02:58:15;;;;;;;;;;;;;;;17.23;57.13;99619.78;2085938;28;19929;-70
2024/01/23 02:59:16;;;;;;;;;;;;;;;17.22;57.27;99620.81;2085707;28;19929;-70
2024/01/23 03:00:18;;;;;;;;;;;;;;;17.19;57.14;99619.31;2085992;28;19928;-70
2024/01/23 03:01:18;;;;;;;;;;;;;;;17.20;57.27;99618.28;2086869;28;19948;-71
2024/01/23 03:02:19;;;;;;;;;;;;;;;17.20;57.15;99614.78;2089455;28;20509;-70
2024/01/23 03:03:21;;;;;;;;;;;;;;;17.21;57.10;99613.75;2085727;28;20019;-70
2024/01/23 03:04:21;;;;;;;;;;;;;;;17.22;57.17;99620.81;2083963;28;19932;-70
2024/01/23 03:05:23;;;;;;;;;;;;;;;17.18;57.03;99617.59;2086541;28;19981;-70
2024/01/23 03:06:23;;;;;;;;;;;;;;;17.18;57.28;99622.97;2084538;28;19975;-69
2024/01/23 03:07:25;;;;;;;;;;;;;;;17.17;57.11;99626.66;2086791;28;20669;-70
2024/01/23 03:08:26;;;;;;;;;;;;;;;17.20;57.12;99625.50;2084621;28;20671;-70
2024/01/23 03:09:29;;;;;;;;;;;;;;;17.18;57.36;99622.97;2084703;28;20021;-70
2024/01/23 03:10:29;;;;;;;;;;;;;;;17.17;57.17;99628.53;2087250;28;20414;-70
2024/01/23 03:11:31;;;;;;;;;;;;;;;17.15;57.25;99623.31;2085967;28;19970;-70
2024/01/23 03:12:31;;;;;;;;;;;;;;;17.17;57.09;99625.84;2085145;28;20319;-70
2024/01/23 03:13:33;;;;;;;;;;;;;;;17.17;57.25;99633.88;2083265;28;19975;-70
2024/01/23 03:14:34;;;;;;;;;;;;;;;17.15;57.25;99633.22;2086244;28;20840;-70
2024/01/23 03:15:35;;;;;;;;;;;;;;;17.18;57.13;99630.19;2086453;28;20051;-70
2024/01/23 03:16:36;;;;;;;;;;;;;;;17.14;57.33;99629.69;2087562;28;19931;-70
2024/01/23 03:17:37;;;;;;;;;;;;;;;17.15;57.40;99625.16;2085022;28;20287;-70
2024/01/23 03:18:38;;;;;;;;;;;;;;;17.13;57.20;99624.50;2084803;28;19940;-70
2024/01/23 03:19:40;;;;;;;;;;;;;;;17.11;57.30;99626.53;2085626;28;19995;-69
2024/01/23 03:20:40;;;;;;;;;;;;;;;17.10;57.12;99631.03;2084250;28;19975;-70
2024/01/23 03:21:42;;;;;;;;;;;;;;;17.11;57.39;99631.88;2086894;28;20007;-70
2024/01/23 03:22:44;;;;;;;;;;;;;;;17.11;57.09;99630.03;2086591;28;19937;-70
2024/01/23 03:23:45;;;;;;;;;;;;;;;17.11;57.09;99626.53;2088854;28;20485;-70
2024/01/23 03:24:47;;;;;;;;;;;;;;;17.12;57.22;99623.66;2084649;28;19928;-70
2024/01/23 03:25:49;;;;;;;;;;;;;;;17.10;57.25;99622.97;2086395;28;19971;-70
2024/01/23 03:26:49;;;;;;;;;;;;;;;17.12;57.11;99618.28;2085506;28;19932;-70
2024/01/23 03:27:50;;;;;;;;;;;;;;;17.11;57.11;99624.69;2084670;28;20024;-70
2024/01/23 03:28:52;;;;;;;;;;;;;;;17.06;57.25;99616.31;2087746;28;19929;-70
2024/01/23 03:29:53;;;;;;;;;;;;;;;17.06;57.35;99624.34;2085881;28;19928;-70
2024/01/23 03:30:54;;;;;;;;;;;;;;;17.09;57.23;99618.63;2087161;28;20012;-70
2024/01/23 03:31:55;;;;;;;;;;;;;;;17.09;57.24;99612.44;2087084;28;19928;-70
2024/01/23 03:32:55;;;;;;;;;;;;;;;17.07;57.19;99623.31;2086755;28;20012;-70
2024/01/23 03:33:57;;;;;;;;;;;;;;;17.07;57.11;99625.16;2086977;28;20362;-70
2024/01/23 03:34:57;;;;;;;;;;;;;;;17.03;57.38;99624.69;2085519;28;19929;-70
2024/01/23 03:35:59;;;;;;;;;;;;;;;17.06;57.20;99612.78;2086126;28;20376;-70
2024/01/23 03:37:01;;;;;;;;;;;;;;;17.07;57.09;99612.59;2088096;28;19928;-70
2024/01/23 03:38:04;;;;;;;;;;;;;;;17.05;57.19;99611.09;2088860;28;19952;-70
2024/01/23 03:39:05;;;;;;;;;;;;;;;17.05;57.23;99611.97;2088524;28;20497;-70
2024/01/23 03:40:09;;;;;;;;;;;;;;;17.03;57.28;99607.78;2087537;28;19994;-70
2024/01/23 03:41:10;;;;;;;;;;;;;;;17.05;57.15;99616.47;2088557;28;19947;-70
2024/01/23 03:42:11;;;;;;;;;;;;;;;17.02;57.37;99617.66;2087337;28;19929;-70
2024/01/23 03:43:12;;;;;;;;;;;;;;;17.03;57.25;99613.97;2090817;28;20433;-70
2024/01/23 03:44:13;;;;;;;;;;;;;;;17.05;57.10;99616.47;2087361;28;19928;-69
2024/01/23 03:45:14;;;;;;;;;;;;;;;17.05;56.99;99611.09;2085398;28;19929;-70
2024/01/23 03:46:16;;;;;;;;;;;;;;;17.04;57.32;99618.31;2085596;28;20020;-70
2024/01/23 03:47:17;;;;;;;;;;;;;;;17.00;57.07;99616.97;2086176;28;19982;-70
2024/01/23 03:48:19;;;;;;;;;;;;;;;17.01;57.16;99621.31;2083655;28;19932;-70
2024/01/23 03:49:20;;;;;;;;;;;;;;;17.02;57.14;99624.84;2087767;28;19925;-70
2024/01/23 03:50:21;;;;;;;;;;;;;;;17.00;57.18;99626.88;2089756;28;20662;-70
2024/01/23 03:51:22;;;;;;;;;;;;;;;16.98;57.34;99625.19;2087950;28;19928;-70
2024/01/23 03:52:23;;;;;;;;;;;;;;;17.00;57.08;99630.38;2089604;28;19960;-70
2024/01/23 03:53:24;;;;;;;;;;;;;;;16.97;57.16;99636.91;2088496;28;20007;-70
2024/01/23 03:54:25;;;;;;;;;;;;;;;17.00;57.23;99633.06;2088951;28;19944;-70
2024/01/23 03:55:27;;;;;;;;;;;;;;;16.97;57.15;99630.72;2087330;28;19933;-70
2024/01/23 03:56:29;;;;;;;;;;;;;;;16.94;57.31;99621.19;2088583;28;19964;-70
2024/01/23 03:57:30;;;;;;;;;;;;;;;16.95;57.33;99628.19;2088168;28;19931;-70
2024/01/23 03:58:31;;;;;;;;;;;;;;;16.97;57.45;99628.03;2084020;28;20415;-70
2024/01/23 03:59:32;;;;;;;;;;;;;;;16.95;57.18;99628.19;2086773;28;19936;-70
2024/01/23 04:00:33;;;;;;;;;;;;;;;16.96;57.18;99629.03;2088057;28;19972;-70
2024/01/23 04:01:34;;;;;;;;;;;;;;;16.95;57.12;99622.84;2089189;28;19924;-70
2024/01/23 04:02:37;;;;;;;;;;;;;;;16.94;57.37;99625.72;2088367;28;20051;-70
2024/01/23 04:03:37;;;;;;;;;;;;;;;16.93;57.29;99624.84;2088126;28;19928;-70
2024/01/23 04:04:39;;;;;;;;;;;;;;;16.91;57.32;99626.00;2086328;28;20498;-69
2024/01/23 04:05:40;;;;;;;;;;;;;;;16.90;57.38;99625.19;2089990;28;19925;-70
2024/01/23 04:06:42;;;;;;;;;;;;;;;16.90;57.33;99627.03;2088141;28;20488;-70
2024/01/23 04:07:43;;;;;;;;;;;;;;;16.90;57.29;99619.00;2086782;28;20051;-70
2024/01/23 04:08:44;;;;;;;;;;;;;;;16.90;57.26;99619.00;2083689;28;19925;-70
2024/01/23 04:09:45;;;;;;;;;;;;;;;16.88;57.15;99623.66;2088490;28;19943;-70
2024/01/23 04:10:47;;;;;;;;;;;;;;;16.88;57.21;99621.00;2088222;28;19959;-70
2024/01/23 04:11:49;;;;;;;;;;;;;;;16.91;57.02;99620.66;2088547;28;19928;-70
2024/01/23 04:12:50;;;;;;;;;;;;;;;16.95;57.05;99638.09;2086928;28;19929;-70
2024/01/23 04:13:50;;;;;;;;;;;;;;;17.01;56.92;99632.03;2086170;28;20058;-70
2024/01/23 04:14:52;;;;;;;;;;;;;;;17.08;56.88;99638.41;2089634;28;20007;-70
2024/01/23 04:15:53;;;;;;;;;;;;;;;17.13;56.67;99637.91;2090029;28;20398;-70
2024/01/23 04:16:54;;;;;;;;;;;;;;;17.18;56.51;99639.06;2088897;28;19932;-70
2024/01/23 04:17:55;;;;;;;;;;;;;;;17.25;56.34;99644.59;2088251;28;20402;-70
2024/01/23 04:18:56;;;;;;;;;;;;;;;17.29;56.31;99639.72;2088010;28;20027;-70
2024/01/23 04:19:57;;;;;;;;;;;;;;;17.34;56.53;99634.69;2088089;28;19928;-70
2024/01/23 04:20:58;;;;;;;;;;;;;;;17.37;56.45;99639.72;2088526;28;19971;-70
2024/01/23 04:21:59;;;;;;;;;;;;;;;17.42;56.36;99642.72;2088776;28;20450;-70
2024/01/23 04:23:00;;;;;;;;;;;;;;;17.44;56.20;99648.75;2090736;28;19931;-70
2024/01/23 04:24:02;;;;;;;;;;;;;;;17.46;56.22;99649.41;2087408;28;20483;-70
2024/01/23 04:25:03;;;;;;;;;;;;;;;17.50;56.29;99652.59;2089257;28;19929;-70
2024/01/23 04:26:06;;;;;;;;;;;;;;;17.53;56.32;99652.25;2087581;28;19929;-70
2024/01/23 04:27:08;;;;;;;;;;;;;;;17.54;56.24;99656.59;2090032;28;21529;-70
2024/01/23 04:28:09;;;;;;;;;;;;;;;17.55;56.43;99661.81;2088865;28;20299;-70
2024/01/23 04:29:11;;;;;;;;;;;;;;;17.58;56.33;99672.19;2087911;28;19932;-70
2024/01/23 04:30:12;;;;;;;;;;;;;;;17.61;56.36;99673.69;2089606;28;19931;-70
2024/01/23 04:31:13;;;;;;;;;;;;;;;17.62;56.42;99673.50;2088768;28;19952;-70
2024/01/23 04:32:14;;;;;;;;;;;;;;;17.67;56.30;99669.47;2089165;28;19960;-70
2024/01/23 04:33:15;;;;;;;;;;;;;;;17.67;56.19;99661.44;2086648;28;19929;-70
2024/01/23 04:34:17;;;;;;;;;;;;;;;17.69;56.38;99662.94;2087425;28;20006;-70
2024/01/23 04:35:18;;;;;;;;;;;;;;;17.70;56.36;99655.72;2089856;28;19944;-70
2024/01/23 04:36:19;;;;;;;;;;;;;;;17.73;56.24;99663.41;2091134;28;20573;-70
2024/01/23 04:37:22;;;;;;;;;;;;;;;17.76;56.37;99663.06;2087197;28;20008;-70
2024/01/23 04:38:23;;;;;;;;;;;;;;;17.78;56.27;99656.56;2088386;28;19936;-68
2024/01/23 04:39:24;;;;;;;;;;;;;;;17.80;56.29;99648.31;2087995;28;19929;-70
2024/01/23 04:40:26;;;;;;;;;;;;;;;17.83;56.14;99645.31;2087640;28;19978;-70
2024/01/23 04:41:28;;;;;;;;;;;;;;;17.84;56.22;99650.50;2088429;28;19929;-70
2024/01/23 04:42:29;;;;;;;;;;;;;;;17.87;56.07;99649.31;2089214;28;19932;-70
2024/01/23 04:43:30;;;;;;;;;;;;;;;17.90;56.33;99646.28;2089562;28;19933;-70
2024/01/23 04:44:32;;;;;;;;;;;;;;;17.92;56.16;99635.38;2088647;28;20616;-70
2024/01/23 04:45:32;;;;;;;;;;;;;;;17.94;56.10;99638.69;2088676;28;19971;-70
2024/01/23 04:46:34;;;;;;;;;;;;;;;17.96;56.24;99642.06;2088643;28;19976;-70
2024/01/23 04:47:34;;;;;;;;;;;;;;;17.97;56.38;99635.66;2088341;28;20470;-70
2024/01/23 04:48:36;;;;;;;;;;;;;;;18.00;56.03;99633.47;2088379;28;20064;-70
2024/01/23 04:49:37;;;;;;;;;;;;;;;18.02;56.24;99634.13;2086858;28;20340;-70
2024/01/23 04:50:38;;;;;;;;;;;;;;;18.04;56.26;99620.53;2090762;28;19975;-70
2024/01/23 04:51:39;;;;;;;;;;;;;;;18.07;56.17;99628.25;2089332;28;20055;-69
2024/01/23 04:52:41;;;;;;;;;;;;;;;18.08;56.12;99633.44;2088805;28;20819;-70
2024/01/23 04:53:41;;;;;;;;;;;;;;;18.09;56.23;99629.75;2089261;28;20023;-69
2024/01/23 04:54:43;;;;;;;;;;;;;;;18.11;56.15;99626.03;2089614;28;21117;-70
2024/01/23 04:55:43;;;;;;;;;;;;;;;18.14;56.01;99626.53;2090256;28;19928;-70
2024/01/23 04:56:47;;;;;;;;;;;;;;;18.15;56.38;99630.03;2090720;28;20383;-70
2024/01/23 04:57:47;;;;;;;;;;;;;;;18.17;55.93;99638.78;2086927;28;20019;-70
2024/01/23 04:58:49;;;;;;;;;;;;;;;18.19;55.94;99636.72;2088622;28;19932;-70
2024/01/23 04:59:50;;;;;;;;;;;;;;;18.19;55.94;99632.22;2089776;28;20014;-70
2024/01/23 05:00:51;;;;;;;;;;;;;;;18.21;56.06;99632.03;2089099;28;20023;-70
2024/01/23 05:01:52;;;;;;;;;;;;;;;18.23;56.20;99632.69;2087356;28;21047;-70
2024/01/23 05:02:53;;;;;;;;;;;;;;;18.24;56.07;99643.22;2090880;28;20015;-70
2024/01/23 05:03:54;;;;;;;;;;;;;;;18.26;56.21;99641.22;2087620;28;20531;-70
2024/01/23 05:04:55;;;;;;;;;;;;;;;18.27;56.04;99650.09;2085992;28;19932;-70
2024/01/23 05:05:56;;;;;;;;;;;;;;;18.27;56.11;99640.19;2087848;28;23329;-70
2024/01/23 05:06:57;;;;;;;;;;;;;;;18.30;55.97;99641.69;2088297;28;19940;-70
2024/01/23 05:07:57;;;;;;;;;;;;;;;18.31;55.91;99640.69;2087619;28;20019;-70
2024/01/23 05:08:59;;;;;;;;;;;;;;;18.31;56.13;99648.75;2089663;28;19944;-70
2024/01/23 05:10:00;;;;;;;;;;;;;;;18.33;55.93;99644.06;2088059;28;19932;-70
2024/01/23 05:11:02;;;;;;;;;;;;;;;18.34;55.84;99645.72;2086972;28;19982;-70
2024/01/23 05:12:04;;;;;;;;;;;;;;;18.36;56.07;99648.22;2088917;28;19939;-70
2024/01/23 05:13:06;;;;;;;;;;;;;;;18.36;56.04;99649.06;2088712;28;20751;-70
2024/01/23 05:14:07;;;;;;;;;;;;;;;18.36;55.86;99651.75;2087825;28;19928;-70
2024/01/23 05:15:08;;;;;;;;;;;;;;;18.38;56.10;99649.69;2087180;28;19971;-70
2024/01/23 05:16:09;;;;;;;;;;;;;;;18.39;56.02;99655.94;2086415;28;19928;-70
2024/01/23 05:17:10;;;;;;;;;;;;;;;18.39;56.04;99651.41;2086858;28;19977;-70
2024/01/23 05:18:12;;;;;;;;;;;;;;;18.41;56.07;99643.13;2088373;28;20510;-70
2024/01/23 05:19:12;;;;;;;;;;;;;;;18.41;55.81;99637.78;2086130;28;20430;-70